sensor_id;sensor_type;location;lat;lon;timestamp;pressure;altitude;pressure_sealevel;temperature;humidity
75298;BME280;63896;45.990;18.688;2023-12-28T00:01:24;101679.69;;;1.55;100.00
75298;BME280;63896;45.990;18.688;2023-12-28T00:04:27;101682.00;;;1.49;100.00
75298;BME280;63896;45.990;18.688;2023-12-28T00:07:30;101683.06;;;1.46;100.00
75298;BME280;63896;45.990;18.688;2023-12-28T00:10:33;101682.34;;;1.44;100.00
75298;BME280;63896;45.990;18.688;2023-12-28T00:13:36;101687.72;;;1.42;100.00
75298;BME280;63896;45.990;18.688;2023-12-28T00:16:38;101691.41;;;1.40;100.00
75298;BME280;63896;45.990;18.688;2023-12-28T00:19:41;101685.22;;;1.41;100.00
75298;BME280;63896;45.990;18.688;2023-12-28T00:22:44;101684.63;;;1.37;100.00
75298;BME280;63896;45.990;18.688;2023-12-28T00:25:47;101675.59;;;1.41;100.00
75298;BME280;63896;45.990;18.688;2023-12-28T00:28:49;101680.28;;;1.59;100.00
75298;BME280;63896;45.990;18.688;2023-12-28T00:31:52;101679.84;;;1.54;100.00
75298;BME280;63896;45.990;18.688;2023-12-28T00:34:55;101682.25;;;1.46;100.00
75298;BME280;63896;45.990;18.688;2023-12-28T00:37:58;101685.22;;;1.41;100.00
75298;BME280;63896;45.990;18.688;2023-12-28T00:41:02;101686.41;;;1.37;100.00
75298;BME280;63896;45.990;18.688;2023-12-28T00:44:05;101688.34;;;1.35;100.00
75298;BME280;63896;45.990;18.688;2023-12-28T00:47:12;101676.06;;;1.35;100.00
75298;BME280;63896;45.990;18.688;2023-12-28T00:50:14;101668.91;;;1.49;100.00
75298;BME280;63896;45.990;18.688;2023-12-28T00:53:17;101678.72;;;1.67;100.00
75298;BME280;63896;45.990;18.688;2023-12-28T00:56:20;101671.44;;;1.71;100.00
75298;BME280;63896;45.990;18.688;2023-12-28T00:59:24;101667.75;;;1.73;100.00
75298;BME280;63896;45.990;18.688;2023-12-28T01:02:27;101670.44;;;1.83;100.00
75298;BME280;63896;45.990;18.688;2023-12-28T01:05:30;101667.81;;;1.83;100.00
75298;BME280;63896;45.990;18.688;2023-12-28T01:08:32;101663.50;;;1.93;100.00
75298;BME280;63896;45.990;18.688;2023-12-28T01:11:38;101657.28;;;1.94;100.00
75298;BME280;63896;45.990;18.688;2023-12-28T01:14:46;101658.66;;;1.88;100.00
75298;BME280;63896;45.990;18.688;2023-12-28T01:17:49;101654.38;;;1.87;100.00
75298;BME280;63896;45.990;18.688;2023-12-28T01:20:52;101660.69;;;1.85;100.00
75298;BME280;63896;45.990;18.688;2023-12-28T01:23:55;101661.56;;;1.74;100.00
75298;BME280;63896;45.990;18.688;2023-12-28T01:26:58;101660.28;;;1.69;100.00
75298;BME280;63896;45.990;18.688;2023-12-28T01:30:00;101656.38;;;1.63;100.00
75298;BME280;63896;45.990;18.688;2023-12-28T01:33:04;101659.28;;;1.49;100.00
75298;BME280;63896;45.990;18.688;2023-12-28T01:36:19;101664.19;;;1.31;100.00
75298;BME280;63896;45.990;18.688;2023-12-28T01:39:22;101665.53;;;1.26;100.00
75298;BME280;63896;45.990;18.688;2023-12-28T01:42:25;101662.47;;;1.53;100.00
75298;BME280;63896;45.990;18.688;2023-12-28T01:45:28;101666.63;;;1.55;100.00
75298;BME280;63896;45.990;18.688;2023-12-28T01:48:32;101666.56;;;1.46;100.00
75298;BME280;63896;45.990;18.688;2023-12-28T01:51:36;101657.56;;;1.38;100.00
75298;BME280;63896;45.990;18.688;2023-12-28T01:54:39;101658.00;;;1.43;100.00
75298;BME280;63896;45.990;18.688;2023-12-28T01:57:42;101668.47;;;1.32;100.00
75298;BME280;63896;45.990;18.688;2023-12-28T02:00:46;101661.25;;;1.25;100.00
75298;BME280;63896;45.990;18.688;2023-12-28T02:03:49;101664.22;;;1.20;100.00
75298;BME280;63896;45.990;18.688;2023-12-28T02:06:56;101674.81;;;1.19;100.00
75298;BME280;63896;45.990;18.688;2023-12-28T02:10:00;101656.78;;;1.16;100.00
75298;BME280;63896;45.990;18.688;2023-12-28T02:13:03;101661.41;;;1.12;100.00
75298;BME280;63896;45.990;18.688;2023-12-28T02:16:17;101651.09;;;1.00;100.00
75298;BME280;63896;45.990;18.688;2023-12-28T02:19:49;101648.59;;;0.98;100.00
75298;BME280;63896;45.990;18.688;2023-12-28T02:22:53;101639.81;;;0.99;100.00
75298;BME280;63896;45.990;18.688;2023-12-28T02:25:56;101639.47;;;0.92;100.00
75298;BME280;63896;45.990;18.688;2023-12-28T02:28:59;101640.78;;;0.87;100.00
75298;BME280;63896;45.990;18.688;2023-12-28T02:32:08;101627.97;;;0.84;100.00
75298;BME280;63896;45.990;18.688;2023-12-28T02:38:19;101615.50;;;0.87;100.00
75298;BME280;63896;45.990;18.688;2023-12-28T02:41:25;101617.03;;;0.90;100.00
75298;BME280;63896;45.990;18.688;2023-12-28T02:44:29;101614.56;;;0.88;100.00
75298;BME280;63896;45.990;18.688;2023-12-28T02:47:32;101612.06;;;0.87;100.00
75298;BME280;63896;45.990;18.688;2023-12-28T02:50:35;101606.94;;;0.85;100.00
75298;BME280;63896;45.990;18.688;2023-12-28T02:53:38;101603.28;;;0.77;100.00
75298;BME280;63896;45.990;18.688;2023-12-28T02:56:41;101607.53;;;0.78;100.00
75298;BME280;63896;45.990;18.688;2023-12-28T02:59:45;101608.03;;;0.72;100.00
75298;BME280;63896;45.990;18.688;2023-12-28T03:02:48;101596.75;;;0.71;100.00
75298;BME280;63896;45.990;18.688;2023-12-28T03:05:51;101596.97;;;0.79;100.00
75298;BME280;63896;45.990;18.688;2023-12-28T03:08:53;101596.97;;;0.79;100.00
75298;BME280;63896;45.990;18.688;2023-12-28T03:11:58;101596.88;;;0.81;100.00
75298;BME280;63896;45.990;18.688;2023-12-28T03:15:03;101595.47;;;0.77;100.00
75298;BME280;63896;45.990;18.688;2023-12-28T03:18:06;101599.47;;;0.70;100.00
75298;BME280;63896;45.990;18.688;2023-12-28T03:21:11;101595.00;;;0.61;100.00
75298;BME280;63896;45.990;18.688;2023-12-28T03:24:14;101594.41;;;0.57;100.00
75298;BME280;63896;45.990;18.688;2023-12-28T03:27:16;101583.31;;;0.87;100.00
75298;BME280;63896;45.990;18.688;2023-12-28T03:30:19;101582.19;;;1.01;100.00
75298;BME280;63896;45.990;18.688;2023-12-28T03:33:22;101574.97;;;0.93;100.00
75298;BME280;63896;45.990;18.688;2023-12-28T03:36:25;101569.16;;;0.89;100.00
75298;BME280;63896;45.990;18.688;2023-12-28T03:39:27;101577.38;;;0.74;100.00
75298;BME280;63896;45.990;18.688;2023-12-28T03:42:30;101583.38;;;0.65;100.00
75298;BME280;63896;45.990;18.688;2023-12-28T03:45:33;101585.16;;;0.53;100.00
75298;BME280;63896;45.990;18.688;2023-12-28T03:48:36;101577.69;;;0.48;100.00
75298;BME280;63896;45.990;18.688;2023-12-28T03:51:41;101574.72;;;0.53;100.00
75298;BME280;63896;45.990;18.688;2023-12-28T03:54:44;101569.34;;;0.55;100.00
75298;BME280;63896;45.990;18.688;2023-12-28T03:57:48;101563.44;;;0.53;100.00
75298;BME280;63896;45.990;18.688;2023-12-28T04:00:52;101562.25;;;0.57;100.00
75298;BME280;63896;45.990;18.688;2023-12-28T04:03:55;101556.78;;;0.60;100.00
75298;BME280;63896;45.990;18.688;2023-12-28T04:06:59;101557.25;;;0.65;100.00
75298;BME280;63896;45.990;18.688;2023-12-28T04:10:02;101548.09;;;0.59;100.00
75298;BME280;63896;45.990;18.688;2023-12-28T04:13:05;101562.47;;;0.65;100.00
75298;BME280;63896;45.990;18.688;2023-12-28T04:16:12;101561.97;;;0.71;100.00
75298;BME280;63896;45.990;18.688;2023-12-28T04:19:15;101560.66;;;0.76;100.00
75298;BME280;63896;45.990;18.688;2023-12-28T04:22:21;101556.53;;;0.63;100.00
75298;BME280;63896;45.990;18.688;2023-12-28T04:25:24;101556.53;;;0.63;100.00
75298;BME280;63896;45.990;18.688;2023-12-28T04:28:27;101555.97;;;0.48;100.00
75298;BME280;63896;45.990;18.688;2023-12-28T04:31:30;101564.38;;;0.40;100.00
75298;BME280;63896;45.990;18.688;2023-12-28T04:34:33;101562.13;;;0.36;100.00
75298;BME280;63896;45.990;18.688;2023-12-28T04:37:36;101563.31;;;0.32;100.00
75298;BME280;63896;45.990;18.688;2023-12-28T04:40:39;101578.88;;;0.22;100.00
75298;BME280;63896;45.990;18.688;2023-12-28T04:43:41;101577.69;;;0.15;100.00
75298;BME280;63896;45.990;18.688;2023-12-28T04:46:44;101575.78;;;0.06;100.00
75298;BME280;63896;45.990;18.688;2023-12-28T04:49:47;101570.31;;;-0.02;100.00
75298;BME280;63896;45.990;18.688;2023-12-28T04:52:50;101587.63;;;-0.01;100.00
75298;BME280;63896;45.990;18.688;2023-12-28T04:55:55;101589.75;;;-0.06;100.00
75298;BME280;63896;45.990;18.688;2023-12-28T04:58:58;101590.94;;;-0.10;100.00
75298;BME280;63896;45.990;18.688;2023-12-28T05:02:00;101583.44;;;-0.15;100.00
75298;BME280;63896;45.990;18.688;2023-12-28T05:05:04;101590.94;;;-0.10;100.00
75298;BME280;63896;45.990;18.688;2023-12-28T05:08:07;101580.00;;;-0.15;100.00
75298;BME280;63896;45.990;18.688;2023-12-28T05:11:10;101572.22;;;-0.04;100.00
75298;BME280;63896;45.990;18.688;2023-12-28T05:14:13;101587.97;;;-0.06;100.00
75298;BME280;63896;45.990;18.688;2023-12-28T05:17:16;101574.91;;;-0.17;100.00
75298;BME280;63896;45.990;18.688;2023-12-28T05:20:19;101577.88;;;-0.21;100.00
75298;BME280;63896;45.990;18.688;2023-12-28T05:23:22;101576.09;;;-0.21;100.00
75298;BME280;63896;45.990;18.688;2023-12-28T05:26:24;101572.06;;;-0.25;100.00
75298;BME280;63896;45.990;18.688;2023-12-28T05:29:28;101578.91;;;-0.35;100.00
75298;BME280;63896;45.990;18.688;2023-12-28T05:32:31;101578.53;;;-0.41;100.00
75298;BME280;63896;45.990;18.688;2023-12-28T05:35:34;101574.88;;;-0.39;100.00
75298;BME280;63896;45.990;18.688;2023-12-28T05:38:37;101573.72;;;-0.24;100.00
75298;BME280;63896;45.990;18.688;2023-12-28T05:41:39;101572.88;;;-0.24;100.00
75298;BME280;63896;45.990;18.688;2023-12-28T05:44:46;101565.16;;;-0.37;100.00
75298;BME280;63896;45.990;18.688;2023-12-28T05:47:48;101562.19;;;-0.43;100.00
75298;BME280;63896;45.990;18.688;2023-12-28T05:50:51;101569.84;;;-0.53;100.00
75298;BME280;63896;45.990;18.688;2023-12-28T05:53:54;101565.31;;;-0.62;100.00
75298;BME280;63896;45.990;18.688;2023-12-28T05:56:56;101560.31;;;-0.65;100.00
75298;BME280;63896;45.990;18.688;2023-12-28T06:00:02;101552.88;;;-0.70;100.00
75298;BME280;63896;45.990;18.688;2023-12-28T06:03:14;101552.97;;;-0.71;100.00
75298;BME280;63896;45.990;18.688;2023-12-28T06:06:17;101547.16;;;-0.75;100.00
75298;BME280;63896;45.990;18.688;2023-12-28T06:09:20;101551.69;;;-0.66;100.00
75298;BME280;63896;45.990;18.688;2023-12-28T06:12:23;101556.06;;;-0.66;100.00
75298;BME280;63896;45.990;18.688;2023-12-28T06:15:25;101560.69;;;-0.70;100.00
75298;BME280;63896;45.990;18.688;2023-12-28T06:18:28;101565.16;;;-0.72;100.00
75298;BME280;63896;45.990;18.688;2023-12-28T06:21:31;101566.44;;;-0.77;100.00
75298;BME280;63896;45.990;18.688;2023-12-28T06:24:38;101564.28;;;-0.83;100.00
75298;BME280;63896;45.990;18.688;2023-12-28T06:27:43;101573.03;;;-0.84;100.00
75298;BME280;63896;45.990;18.688;2023-12-28T06:30:45;101562.13;;;-0.89;100.00
75298;BME280;63896;45.990;18.688;2023-12-28T06:33:48;101557.69;;;-1.00;100.00
75298;BME280;63896;45.990;18.688;2023-12-28T06:36:51;101558.84;;;-1.04;100.00
75298;BME280;63896;45.990;18.688;2023-12-28T06:39:54;101550.88;;;-1.14;100.00
75298;BME280;63896;45.990;18.688;2023-12-28T06:42:57;101566.03;;;-1.08;100.00
75298;BME280;63896;45.990;18.688;2023-12-28T06:46:00;101568.66;;;-1.08;100.00
75298;BME280;63896;45.990;18.688;2023-12-28T06:49:03;101570.38;;;-0.96;100.00
75298;BME280;63896;45.990;18.688;2023-12-28T06:52:12;101575.47;;;-0.94;100.00
75298;BME280;63896;45.990;18.688;2023-12-28T06:55:15;101582.38;;;-0.93;100.00
75298;BME280;63896;45.990;18.688;2023-12-28T06:58:17;101587.22;;;-0.88;100.00
75298;BME280;63896;45.990;18.688;2023-12-28T07:01:20;101586.19;;;-0.86;100.00
75298;BME280;63896;45.990;18.688;2023-12-28T07:04:23;101592.69;;;-0.80;100.00
75298;BME280;63896;45.990;18.688;2023-12-28T07:07:28;101587.78;;;-0.72;100.00
75298;BME280;63896;45.990;18.688;2023-12-28T07:10:31;101582.25;;;-0.57;100.00
75298;BME280;63896;45.990;18.688;2023-12-28T07:13:34;101585.50;;;-0.42;100.00
75298;BME280;63896;45.990;18.688;2023-12-28T07:16:37;101585.53;;;-0.31;100.00
75298;BME280;63896;45.990;18.688;2023-12-28T07:19:41;101586.38;;;-0.19;100.00
75298;BME280;63896;45.990;18.688;2023-12-28T07:22:43;101599.00;;;-0.02;100.00
75298;BME280;63896;45.990;18.688;2023-12-28T07:25:46;101602.13;;;0.14;100.00
75298;BME280;63896;45.990;18.688;2023-12-28T07:28:49;101595.72;;;0.29;100.00
75298;BME280;63896;45.990;18.688;2023-12-28T07:31:53;101592.75;;;0.45;100.00
75298;BME280;63896;45.990;18.688;2023-12-28T07:34:56;101588.69;;;0.63;100.00
75298;BME280;63896;45.990;18.688;2023-12-28T07:37:59;101607.31;;;0.81;100.00
75298;BME280;63896;45.990;18.688;2023-12-28T07:41:02;101602.28;;;1.00;100.00
75298;BME280;63896;45.990;18.688;2023-12-28T07:44:05;101606.50;;;1.23;100.00
75298;BME280;63896;45.990;18.688;2023-12-28T07:47:08;101591.56;;;1.67;100.00
75298;BME280;63896;45.990;18.688;2023-12-28T07:50:11;101594.50;;;3.52;100.00
75298;BME280;63896;45.990;18.688;2023-12-28T07:53:14;101579.34;;;6.34;100.00
75298;BME280;63896;45.990;18.688;2023-12-28T07:56:17;101576.97;;;8.03;100.00
75298;BME280;63896;45.990;18.688;2023-12-28T07:59:20;101577.56;;;9.07;100.00
75298;BME280;63896;45.990;18.688;2023-12-28T08:02:22;101583.22;;;10.25;100.00
75298;BME280;63896;45.990;18.688;2023-12-28T08:05:26;101581.91;;;11.15;100.00
75298;BME280;63896;45.990;18.688;2023-12-28T08:08:29;101588.59;;;10.61;100.00
75298;BME280;63896;45.990;18.688;2023-12-28T08:11:31;101590.31;;;11.19;91.65
75298;BME280;63896;45.990;18.688;2023-12-28T08:14:34;101594.50;;;11.98;74.25
75298;BME280;63896;45.990;18.688;2023-12-28T08:17:37;101588.91;;;12.55;71.34
75298;BME280;63896;45.990;18.688;2023-12-28T08:20:40;101588.41;;;13.40;65.62
75298;BME280;63896;45.990;18.688;2023-12-28T08:23:43;101596.84;;;13.57;59.39
75298;BME280;63896;45.990;18.688;2023-12-28T08:26:46;101590.50;;;12.90;60.01
75298;BME280;63896;45.990;18.688;2023-12-28T08:29:49;101595.72;;;14.56;53.67
75298;BME280;63896;45.990;18.688;2023-12-28T08:32:51;101600.84;;;15.40;52.24
75298;BME280;63896;45.990;18.688;2023-12-28T08:35:54;101606.78;;;13.09;57.41
75298;BME280;63896;45.990;18.688;2023-12-28T08:38:57;101591.53;;;15.49;52.26
75298;BME280;63896;45.990;18.688;2023-12-28T08:42:00;101605.03;;;14.92;51.30
75298;BME280;63896;45.990;18.688;2023-12-28T08:45:03;101603.34;;;14.33;52.81
75298;BME280;63896;45.990;18.688;2023-12-28T08:48:06;101603.38;;;15.66;50.41
75298;BME280;63896;45.990;18.688;2023-12-28T08:51:09;101600.22;;;16.92;46.85
75298;BME280;63896;45.990;18.688;2023-12-28T08:54:13;101604.59;;;17.04;45.47
75298;BME280;63896;45.990;18.688;2023-12-28T08:57:16;101601.16;;;17.45;45.52
75298;BME280;63896;45.990;18.688;2023-12-28T09:00:32;101602.25;;;17.68;44.48
75298;BME280;63896;45.990;18.688;2023-12-28T09:03:35;101604.53;;;16.20;46.92
75298;BME280;63896;45.990;18.688;2023-12-28T09:06:38;101590.09;;;17.24;45.19
75298;BME280;63896;45.990;18.688;2023-12-28T09:09:41;101582.81;;;17.54;43.80
75298;BME280;63896;45.990;18.688;2023-12-28T09:12:44;101576.78;;;18.40;42.06
75298;BME280;63896;45.990;18.688;2023-12-28T09:15:47;101576.91;;;18.45;41.89
75298;BME280;63896;45.990;18.688;2023-12-28T09:18:50;101572.81;;;17.20;44.05
75298;BME280;63896;45.990;18.688;2023-12-28T09:21:53;101568.03;;;18.44;42.07
75298;BME280;63896;45.990;18.688;2023-12-28T09:24:56;101571.28;;;18.46;41.83
75298;BME280;63896;45.990;18.688;2023-12-28T09:27:59;101574.28;;;16.74;45.39
75298;BME280;63896;45.990;18.688;2023-12-28T09:31:03;101567.03;;;17.64;43.22
75298;BME280;63896;45.990;18.688;2023-12-28T09:34:06;101556.19;;;18.69;41.92
75298;BME280;63896;45.990;18.688;2023-12-28T09:37:08;101559.78;;;17.65;42.82
75298;BME280;63896;45.990;18.688;2023-12-28T09:40:12;101546.53;;;18.84;40.92
75298;BME280;63896;45.990;18.688;2023-12-28T09:46:29;101540.97;;;19.02;40.40
75298;BME280;63896;45.990;18.688;2023-12-28T09:49:32;101537.72;;;18.72;42.05
75298;BME280;63896;45.990;18.688;2023-12-28T09:52:36;101533.94;;;20.02;38.88
75298;BME280;63896;45.990;18.688;2023-12-28T09:55:38;101533.63;;;19.98;40.06
75298;BME280;63896;45.990;18.688;2023-12-28T09:58:42;101532.75;;;21.65;36.44
75298;BME280;63896;45.990;18.688;2023-12-28T10:01:47;101523.03;;;22.63;34.54
75298;BME280;63896;45.990;18.688;2023-12-28T10:04:50;101510.69;;;23.58;32.74
75298;BME280;63896;45.990;18.688;2023-12-28T10:07:55;101501.63;;;22.51;34.41
75298;BME280;63896;45.990;18.688;2023-12-28T10:10:58;101506.75;;;21.54;36.73
75298;BME280;63896;45.990;18.688;2023-12-28T10:14:03;101506.38;;;21.82;36.80
75298;BME280;63896;45.990;18.688;2023-12-28T10:17:07;101503.09;;;23.30;33.65
75298;BME280;63896;45.990;18.688;2023-12-28T10:20:09;101489.31;;;23.46;33.22
75298;BME280;63896;45.990;18.688;2023-12-28T10:23:12;101483.31;;;20.42;37.72
75298;BME280;63896;45.990;18.688;2023-12-28T10:26:17;101473.31;;;19.61;40.10
75298;BME280;63896;45.990;18.688;2023-12-28T10:29:24;101471.69;;;20.95;37.66
75298;BME280;63896;45.990;18.688;2023-12-28T10:32:27;101469.53;;;22.08;35.71
75298;BME280;63896;45.990;18.688;2023-12-28T10:35:30;101468.50;;;21.30;37.79
75298;BME280;63896;45.990;18.688;2023-12-28T10:38:35;101465.41;;;21.16;37.62
75298;BME280;63896;45.990;18.688;2023-12-28T10:41:41;101463.44;;;19.16;42.30
75298;BME280;63896;45.990;18.688;2023-12-28T10:44:48;101463.47;;;21.91;37.39
75298;BME280;63896;45.990;18.688;2023-12-28T10:51:01;101449.25;;;22.05;37.32
75298;BME280;63896;45.990;18.688;2023-12-28T10:54:20;101444.50;;;22.48;35.50
75298;BME280;63896;45.990;18.688;2023-12-28T10:57:58;101434.66;;;20.59;38.78
75298;BME280;63896;45.990;18.688;2023-12-28T11:00:59;101429.69;;;23.21;34.51
75298;BME280;63896;45.990;18.688;2023-12-28T11:07:15;101424.69;;;23.89;33.52
75298;BME280;63896;45.990;18.688;2023-12-28T11:10:21;101423.38;;;20.35;39.40
75298;BME280;63896;45.990;18.688;2023-12-28T11:13:25;101412.06;;;23.34;34.75
75298;BME280;63896;45.990;18.688;2023-12-28T11:16:29;101404.94;;;22.11;36.48
75298;BME280;63896;45.990;18.688;2023-12-28T11:19:34;101403.97;;;22.58;36.49
75298;BME280;63896;45.990;18.688;2023-12-28T11:22:37;101398.41;;;20.76;39.21
75298;BME280;63896;45.990;18.688;2023-12-28T11:25:41;101388.41;;;22.03;37.64
75298;BME280;63896;45.990;18.688;2023-12-28T11:28:44;101390.59;;;20.48;39.99
75298;BME280;63896;45.990;18.688;2023-12-28T11:31:58;101388.47;;;20.50;40.39
75298;BME280;63896;45.990;18.688;2023-12-28T11:35:00;101377.47;;;23.05;35.92
75298;BME280;63896;45.990;18.688;2023-12-28T11:38:05;101377.03;;;23.72;35.14
75298;BME280;63896;45.990;18.688;2023-12-28T11:41:16;101366.31;;;24.89;33.46
75298;BME280;63896;45.990;18.688;2023-12-28T11:44:25;101364.44;;;24.85;33.43
75298;BME280;63896;45.990;18.688;2023-12-28T11:47:28;101355.13;;;24.57;34.07
75298;BME280;63896;45.990;18.688;2023-12-28T11:50:32;101357.97;;;25.81;32.81
75298;BME280;63896;45.990;18.688;2023-12-28T11:53:35;101350.88;;;26.73;31.64
75298;BME280;63896;45.990;18.688;2023-12-28T11:56:39;101352.53;;;24.76;33.72
75298;BME280;63896;45.990;18.688;2023-12-28T11:59:42;101354.84;;;23.65;36.19
75298;BME280;63896;45.990;18.688;2023-12-28T12:02:45;101359.78;;;23.53;36.45
75298;BME280;63896;45.990;18.688;2023-12-28T12:05:49;101351.47;;;23.94;36.78
75298;BME280;63896;45.990;18.688;2023-12-28T12:08:52;101338.00;;;24.61;35.43
75298;BME280;63896;45.990;18.688;2023-12-28T12:11:55;101338.78;;;23.79;36.66
75298;BME280;63896;45.990;18.688;2023-12-28T12:14:58;101336.09;;;22.74;37.88
75298;BME280;63896;45.990;18.688;2023-12-28T12:18:01;101334.28;;;21.88;39.75
75298;BME280;63896;45.990;18.688;2023-12-28T12:21:05;101325.25;;;20.68;43.51
75298;BME280;63896;45.990;18.688;2023-12-28T12:24:09;101329.47;;;20.54;45.29
75298;BME280;63896;45.990;18.688;2023-12-28T12:27:12;101317.13;;;21.05;44.73
75298;BME280;63896;45.990;18.688;2023-12-28T12:30:15;101325.53;;;20.39;44.91
75298;BME280;63896;45.990;18.688;2023-12-28T12:33:18;101322.66;;;20.46;44.80
75298;BME280;63896;45.990;18.688;2023-12-28T12:36:21;101320.63;;;19.01;47.97
75298;BME280;63896;45.990;18.688;2023-12-28T12:39:24;101325.16;;;18.50;49.53
75298;BME280;63896;45.990;18.688;2023-12-28T12:42:27;101320.69;;;17.94;51.33
75298;BME280;63896;45.990;18.688;2023-12-28T12:45:30;101321.66;;;17.77;52.39
75298;BME280;63896;45.990;18.688;2023-12-28T12:48:33;101309.91;;;16.91;53.29
75298;BME280;63896;45.990;18.688;2023-12-28T12:51:38;101315.81;;;16.93;53.80
75298;BME280;63896;45.990;18.688;2023-12-28T12:54:41;101305.09;;;16.70;56.83
75298;BME280;63896;45.990;18.688;2023-12-28T12:57:44;101312.44;;;16.22;61.07
75298;BME280;63896;45.990;18.688;2023-12-28T13:00:47;101312.88;;;16.18;58.97
75298;BME280;63896;45.990;18.688;2023-12-28T13:03:50;101308.91;;;15.61;59.86
75298;BME280;63896;45.990;18.688;2023-12-28T13:06:53;101307.41;;;15.47;61.25
75298;BME280;63896;45.990;18.688;2023-12-28T13:09:56;101316.22;;;14.93;65.66
75298;BME280;63896;45.990;18.688;2023-12-28T13:12:59;101306.94;;;15.14;65.08
75298;BME280;63896;45.990;18.688;2023-12-28T13:16:04;101307.38;;;15.84;63.39
75298;BME280;63896;45.990;18.688;2023-12-28T13:19:07;101311.72;;;15.66;63.03
75298;BME280;63896;45.990;18.688;2023-12-28T13:22:10;101301.09;;;15.42;62.88
75298;BME280;63896;45.990;18.688;2023-12-28T13:25:14;101294.38;;;14.96;66.70
75298;BME280;63896;45.990;18.688;2023-12-28T13:28:17;101304.16;;;14.35;70.30
75298;BME280;63896;45.990;18.688;2023-12-28T13:31:20;101304.28;;;14.08;71.75
75298;BME280;63896;45.990;18.688;2023-12-28T13:34:23;101298.97;;;13.64;71.69
75298;BME280;63896;45.990;18.688;2023-12-28T13:37:26;101287.41;;;13.39;75.49
75298;BME280;63896;45.990;18.688;2023-12-28T13:40:29;101296.25;;;13.06;76.80
75298;BME280;63896;45.990;18.688;2023-12-28T13:43:33;101300.38;;;12.89;79.44
75298;BME280;63896;45.990;18.688;2023-12-28T13:46:36;101296.28;;;12.86;80.78
75298;BME280;63896;45.990;18.688;2023-12-28T13:49:39;101300.41;;;12.69;82.50
75298;BME280;63896;45.990;18.688;2023-12-28T13:52:42;101304.66;;;12.24;84.55
75298;BME280;63896;45.990;18.688;2023-12-28T13:55:45;101300.53;;;12.09;85.80
75298;BME280;63896;45.990;18.688;2023-12-28T13:58:48;101296.66;;;12.18;86.71
75298;BME280;63896;45.990;18.688;2023-12-28T14:01:51;101308.50;;;12.09;89.55
75298;BME280;63896;45.990;18.688;2023-12-28T14:04:54;101307.00;;;11.80;93.72
75298;BME280;63896;45.990;18.688;2023-12-28T14:07:59;101301.59;;;11.60;97.04
75298;BME280;63896;45.990;18.688;2023-12-28T14:11:02;101303.31;;;11.40;100.00
75298;BME280;63896;45.990;18.688;2023-12-28T14:14:07;101298.22;;;11.38;100.00
75298;BME280;63896;45.990;18.688;2023-12-28T14:17:10;101295.53;;;11.32;100.00
75298;BME280;63896;45.990;18.688;2023-12-28T14:20:13;101299.78;;;11.20;100.00
75298;BME280;63896;45.990;18.688;2023-12-28T14:23:17;101302.31;;;11.00;100.00
75298;BME280;63896;45.990;18.688;2023-12-28T14:26:21;101297.75;;;10.94;100.00
75298;BME280;63896;45.990;18.688;2023-12-28T14:29:25;101309.72;;;10.83;100.00
75298;BME280;63896;45.990;18.688;2023-12-28T14:32:29;101296.34;;;10.70;100.00
75298;BME280;63896;45.990;18.688;2023-12-28T14:35:33;101305.78;;;10.73;100.00
75298;BME280;63896;45.990;18.688;2023-12-28T14:38:35;101308.34;;;10.66;100.00
75298;BME280;63896;45.990;18.688;2023-12-28T14:41:38;101301.88;;;10.47;100.00
75298;BME280;63896;45.990;18.688;2023-12-28T14:44:45;101300.75;;;10.35;100.00
75298;BME280;63896;45.990;18.688;2023-12-28T14:47:48;101301.91;;;10.26;100.00
75298;BME280;63896;45.990;18.688;2023-12-28T14:50:51;101302.22;;;10.02;100.00
75298;BME280;63896;45.990;18.688;2023-12-28T14:53:54;101312.88;;;9.87;100.00
75298;BME280;63896;45.990;18.688;2023-12-28T14:56:57;101304.59;;;9.76;100.00
75298;BME280;63896;45.990;18.688;2023-12-28T15:00:00;101315.84;;;9.63;100.00
75298;BME280;63896;45.990;18.688;2023-12-28T15:03:03;101320.63;;;9.53;100.00
75298;BME280;63896;45.990;18.688;2023-12-28T15:06:06;101319.16;;;9.36;100.00
75298;BME280;63896;45.990;18.688;2023-12-28T15:09:09;101312.50;;;9.25;100.00
75298;BME280;63896;45.990;18.688;2023-12-28T15:12:12;101318.50;;;9.19;100.00
75298;BME280;63896;45.990;18.688;2023-12-28T15:15:16;101305.91;;;9.06;100.00
75298;BME280;63896;45.990;18.688;2023-12-28T15:18:19;101300.63;;;8.92;100.00
75298;BME280;63896;45.990;18.688;2023-12-28T15:21:22;101302.59;;;8.75;100.00
75298;BME280;63896;45.990;18.688;2023-12-28T15:24:25;101298.38;;;8.66;100.00
75298;BME280;63896;45.990;18.688;2023-12-28T15:27:28;101303.31;;;8.46;100.00
75298;BME280;63896;45.990;18.688;2023-12-28T15:30:31;101309.69;;;8.37;100.00
75298;BME280;63896;45.990;18.688;2023-12-28T15:33:34;101315.06;;;8.21;100.00
75298;BME280;63896;45.990;18.688;2023-12-28T15:36:37;101315.00;;;8.06;100.00
75298;BME280;63896;45.990;18.688;2023-12-28T15:39:40;101323.19;;;7.89;100.00
75298;BME280;63896;45.990;18.688;2023-12-28T15:42:44;101315.50;;;7.79;100.00
75298;BME280;63896;45.990;18.688;2023-12-28T15:45:51;101316.00;;;7.75;100.00
75298;BME280;63896;45.990;18.688;2023-12-28T15:48:53;101310.88;;;7.73;100.00
75298;BME280;63896;45.990;18.688;2023-12-28T15:51:56;101305.78;;;7.72;100.00
75298;BME280;63896;45.990;18.688;2023-12-28T15:55:00;101313.28;;;7.60;100.00
75298;BME280;63896;45.990;18.688;2023-12-28T15:58:03;101318.13;;;7.40;100.00